createdAt,value
2018-06-22T00:00:57.521Z,10.57
2018-06-22T00:03:27.155Z,10.54
2018-06-22T00:05:56.888Z,10.59
2018-06-22T00:08:26.537Z,10.71
2018-06-22T00:10:56.021Z,10.84
2018-06-22T00:13:25.797Z,10.91
2018-06-22T00:15:55.412Z,10.94
2018-06-22T00:18:25.069Z,11.35
2018-06-22T00:20:54.689Z,11.22
2018-06-22T00:23:23.977Z,11.26
2018-06-22T00:25:53.645Z,10.94
2018-06-22T00:28:23.520Z,11.05
2018-06-22T00:30:53.227Z,11.27
2018-06-22T00:33:22.940Z,11.05
2018-06-22T00:35:52.687Z,11.12
2018-06-22T00:38:22.348Z,11.36
2018-06-22T00:40:52.045Z,11.47
2018-06-22T00:43:21.644Z,11.59
2018-06-22T00:45:51.262Z,11.41
2018-06-22T00:48:20.862Z,11.56
2018-06-22T00:50:50.531Z,11.45
2018-06-22T00:53:36.969Z,11.62
2018-06-22T00:56:06.644Z,11.46
2018-06-22T00:58:36.286Z,11.54
2018-06-22T01:01:05.981Z,11.51
2018-06-22T01:03:35.628Z,11.48
2018-06-22T01:06:05.260Z,11.51
2018-06-22T01:08:34.909Z,11.60
2018-06-22T01:11:04.312Z,11.31
2018-06-22T01:13:33.769Z,11.29
2018-06-22T01:16:03.427Z,11.29
2018-06-22T01:18:33.053Z,11.30
2018-06-22T01:21:02.724Z,11.21
2018-06-22T01:23:32.385Z,11.38
2018-06-22T01:26:02.057Z,11.03
2018-06-22T01:28:31.680Z,11.18
2018-06-22T01:31:01.503Z,10.93
2018-06-22T01:33:31.225Z,10.76
2018-06-22T01:36:00.941Z,10.88
2018-06-22T01:38:30.332Z,10.87
2018-06-22T01:40:59.979Z,10.79
2018-06-22T01:43:29.590Z,10.64
2018-06-22T01:45:59.269Z,10.70
2018-06-22T01:48:28.894Z,10.84
2018-06-22T01:50:58.592Z,10.88
2018-06-22T01:53:28.190Z,11.12
2018-06-22T01:55:57.806Z,10.85
2018-06-22T01:58:27.521Z,10.96
2018-06-22T02:00:57.286Z,10.90
2018-06-22T02:03:26.939Z,10.73
2018-06-22T02:05:56.720Z,10.51
2018-06-22T02:08:26.340Z,10.70
2018-06-22T02:10:56.064Z,10.62
2018-06-22T02:13:25.779Z,10.54
2018-06-22T02:15:55.631Z,10.61
2018-06-22T02:18:25.278Z,10.58
2018-06-22T02:20:54.973Z,10.57
2018-06-22T02:23:24.642Z,10.41
2018-06-22T02:25:54.281Z,10.38
2018-06-22T02:28:23.952Z,10.50
2018-06-22T02:30:53.618Z,10.77
2018-06-22T02:33:23.254Z,10.94
2018-06-22T02:35:52.884Z,10.84
2018-06-22T02:38:22.640Z,10.85
2018-06-22T02:40:52.007Z,10.82
2018-06-22T02:43:21.692Z,11.02
2018-06-22T02:45:51.360Z,11.10
2018-06-22T02:48:21.025Z,10.78
2018-06-22T02:50:50.669Z,11.00
2018-06-22T02:53:20.293Z,10.91
2018-06-22T02:55:49.966Z,10.89
2018-06-22T02:58:19.676Z,10.79
2018-06-22T03:00:49.385Z,10.66
2018-06-22T03:03:19.208Z,10.54
2018-06-22T03:05:48.899Z,10.54
2018-06-22T03:08:18.601Z,10.44
2018-06-22T03:10:48.280Z,10.19
2018-06-22T03:13:17.964Z,10.31
2018-06-22T03:15:47.659Z,10.21
2018-06-22T03:18:17.378Z,10.15
2018-06-22T03:20:47.037Z,10.25
2018-06-22T03:23:16.724Z,10.24
2018-06-22T03:25:46.929Z,10.25
2018-06-22T03:28:16.613Z,10.08
2018-06-22T03:30:45.939Z,10.13
2018-06-22T03:33:15.571Z,10.00
2018-06-22T03:35:45.190Z,10.09
2018-06-22T03:38:14.864Z,10.18
2018-06-22T03:40:44.638Z,10.04
2018-06-22T03:43:14.289Z,10.07
2018-06-22T03:45:44.034Z,10.12
2018-06-22T03:48:13.774Z,10.08
2018-06-22T03:50:43.427Z,10.18
2018-06-22T03:53:13.048Z,10.31
2018-06-22T03:55:43.029Z,10.78
2018-06-22T03:58:12.792Z,10.84
2018-06-22T04:00:42.442Z,10.87
2018-06-22T04:03:12.118Z,10.95
2018-06-22T04:05:41.734Z,10.87
2018-06-22T04:08:11.552Z,11.07
2018-06-22T04:10:41.197Z,10.77
2018-06-22T04:13:10.885Z,10.45
2018-06-22T04:15:40.640Z,10.44
2018-06-22T04:18:10.195Z,10.31
2018-06-22T04:20:39.898Z,10.12
2018-06-22T04:23:09.592Z,10.28
2018-06-22T04:25:39.240Z,10.36
2018-06-22T04:28:08.898Z,10.40
2018-06-22T04:30:38.224Z,10.29
2018-06-22T04:33:07.946Z,10.21
2018-06-22T04:35:37.711Z,10.35
2018-06-22T04:38:07.381Z,10.58
2018-06-22T04:40:37.034Z,10.70
2018-06-22T04:43:06.737Z,10.56
2018-06-22T04:45:36.548Z,10.68
2018-06-22T04:48:06.207Z,10.95
2018-06-22T04:50:35.571Z,10.92
2018-06-22T04:53:05.642Z,11.12
2018-06-22T04:55:35.347Z,11.10
2018-06-22T04:58:04.700Z,11.42
2018-06-22T05:00:34.420Z,11.43
2018-06-22T05:03:04.092Z,11.37
2018-06-22T05:05:33.709Z,11.66
2018-06-22T05:08:03.379Z,11.86
2018-06-22T05:10:33.081Z,12.01
2018-06-22T05:13:02.961Z,12.01
2018-06-22T05:15:32.670Z,12.04
2018-06-22T05:18:02.325Z,12.19
2018-06-22T05:20:31.968Z,12.27
2018-06-22T05:23:01.312Z,12.31
2018-06-22T05:25:30.984Z,12.37
2018-06-22T05:28:00.271Z,12.25
2018-06-22T05:30:30.014Z,12.48
2018-06-22T05:32:59.846Z,12.76
2018-06-22T05:35:29.575Z,12.68
2018-06-22T05:37:59.253Z,12.84
2018-06-22T05:40:28.942Z,12.82
2018-06-22T05:42:58.628Z,12.90
2018-06-22T05:45:28.257Z,12.88
2018-06-22T05:47:58.440Z,12.72
2018-06-22T05:50:28.708Z,12.99
2018-06-22T05:52:58.856Z,13.00
2018-06-22T05:55:29.066Z,13.16
2018-06-22T05:57:59.149Z,12.95
2018-06-22T06:00:29.066Z,13.17
2018-06-22T06:02:59.365Z,13.08
2018-06-22T06:05:29.556Z,13.28
2018-06-22T06:07:59.933Z,13.57
2018-06-22T06:10:30.081Z,13.60
2018-06-22T06:13:00.366Z,13.44
2018-06-22T06:15:30.731Z,13.36
2018-06-22T06:18:01.077Z,13.16
2018-06-22T06:20:31.455Z,13.41
2018-06-22T06:23:01.548Z,13.37
2018-06-22T06:25:32.520Z,13.30
2018-06-22T06:28:02.219Z,13.33
2018-06-22T06:30:31.998Z,13.52
2018-06-22T06:33:01.696Z,13.52
2018-06-22T06:35:31.323Z,13.88
2018-06-22T06:38:00.983Z,14.16
2018-06-22T06:40:30.832Z,14.36
2018-06-22T06:43:00.450Z,14.54
2018-06-22T06:45:30.095Z,14.63
2018-06-22T06:47:59.399Z,14.62
2018-06-22T06:50:28.788Z,14.74
2018-06-22T06:52:58.439Z,14.78
2018-06-22T06:55:28.365Z,14.68
2018-06-22T06:57:58.127Z,15.15
2018-06-22T07:00:27.799Z,15.21
2018-06-22T07:02:57.513Z,15.18
2018-06-22T07:05:27.209Z,14.94
2018-06-22T07:07:56.885Z,14.57
2018-06-22T07:10:26.565Z,14.46
2018-06-22T07:12:56.230Z,14.51
2018-06-22T07:15:25.943Z,14.36
2018-06-22T07:17:55.301Z,14.52
2018-06-22T07:20:24.943Z,14.74
2018-06-22T07:22:54.620Z,14.83
2018-06-22T07:25:24.279Z,14.86
2018-06-22T07:27:53.629Z,14.78
2018-06-22T07:30:23.262Z,15.25
2018-06-22T07:32:52.949Z,15.34
2018-06-22T07:35:22.655Z,15.34
2018-06-22T07:37:52.509Z,15.17
2018-06-22T07:40:22.249Z,15.07
2018-06-22T07:42:52.019Z,15.29
2018-06-22T07:45:21.654Z,15.46
2018-06-22T07:47:51.357Z,15.78
2018-06-22T07:50:21.089Z,15.58
2018-06-22T07:52:50.852Z,15.38
2018-06-22T07:55:20.517Z,15.20
2018-06-22T07:57:50.278Z,15.28
2018-06-22T08:00:19.954Z,15.19
2018-06-22T08:02:49.600Z,15.14
2018-06-22T08:05:19.421Z,14.94
2018-06-22T08:07:49.189Z,15.21
2018-06-22T08:10:18.892Z,15.09
2018-06-22T08:12:48.536Z,15.11
2018-06-22T08:15:17.853Z,15.05
2018-06-22T08:17:47.566Z,15.33
2018-06-22T08:20:17.246Z,15.31
2018-06-22T08:22:46.889Z,15.30
2018-06-22T08:25:16.565Z,15.39
2018-06-22T08:27:46.206Z,15.45
2018-06-22T08:30:15.870Z,15.70
2018-06-22T08:32:45.631Z,16.49
2018-06-22T08:35:15.282Z,16.62
2018-06-22T08:37:44.948Z,16.53
2018-06-22T08:40:14.554Z,16.33
2018-06-22T08:42:44.239Z,16.15
2018-06-22T08:45:13.921Z,15.77
2018-06-22T08:47:43.959Z,15.58
2018-06-22T08:50:13.609Z,15.44
2018-06-22T08:52:43.273Z,15.37
2018-06-22T08:55:12.931Z,15.44
2018-06-22T08:57:42.574Z,15.33
2018-06-22T09:00:12.257Z,15.13
2018-06-22T09:02:42.022Z,15.01
2018-06-22T09:05:11.757Z,15.18
2018-06-22T09:07:41.422Z,15.04
2018-06-22T09:10:11.085Z,14.93
2018-06-22T09:12:40.814Z,15.03
2018-06-22T09:15:10.434Z,15.07
2018-06-22T09:17:39.820Z,14.88
2018-06-22T09:20:09.498Z,14.86
2018-06-22T09:22:39.238Z,15.08
2018-06-22T09:25:08.834Z,15.20
2018-06-22T09:27:38.554Z,15.40
2018-06-22T09:30:08.341Z,15.65
2018-06-22T09:32:38.042Z,16.25
2018-06-22T09:35:08.503Z,17.30
2018-06-22T09:37:38.949Z,18.06
2018-06-22T09:40:08.743Z,18.17
2018-06-22T09:42:38.488Z,17.94
2018-06-22T09:45:08.011Z,17.99
2018-06-22T09:47:37.310Z,17.56
2018-06-22T09:50:07.048Z,17.23
2018-06-22T09:52:36.316Z,16.83
2018-06-22T09:55:06.143Z,16.18
2018-06-22T09:57:35.825Z,16.03
2018-06-22T10:00:05.613Z,15.86
2018-06-22T10:02:35.281Z,15.87
2018-06-22T10:05:05.109Z,15.77
2018-06-22T10:07:34.757Z,15.79
2018-06-22T10:10:04.474Z,15.79
2018-06-22T10:12:34.103Z,15.80
2018-06-22T10:15:03.785Z,15.64
2018-06-22T10:17:33.455Z,15.42
2018-06-22T10:20:03.185Z,15.24
2018-06-22T10:22:32.917Z,15.22
2018-06-22T10:25:02.227Z,15.25
2018-06-22T10:27:32.163Z,15.28
2018-06-22T10:30:01.788Z,15.48
2018-06-22T10:32:31.461Z,15.44
2018-06-22T10:35:01.183Z,15.58
2018-06-22T10:37:30.812Z,15.52
2018-06-22T10:40:00.611Z,15.71
2018-06-22T10:42:30.393Z,15.91
2018-06-22T10:45:00.084Z,15.98
2018-06-22T10:47:29.964Z,17.03
2018-06-22T10:49:59.693Z,18.12
2018-06-22T10:52:29.563Z,19.85
2018-06-22T10:54:59.545Z,19.94
2018-06-22T10:57:29.341Z,21.08
2018-06-22T10:59:59.250Z,22.22
2018-06-22T11:02:28.850Z,23.10
2018-06-22T11:04:58.501Z,21.87
2018-06-22T11:07:28.270Z,20.28
2018-06-22T11:09:57.680Z,18.95
2018-06-22T11:12:27.462Z,19.76
2018-06-22T11:14:57.451Z,19.59
2018-06-22T11:17:27.050Z,19.36
2018-06-22T11:19:56.833Z,19.03
2018-06-22T11:22:26.241Z,19.36
2018-06-22T11:24:56.036Z,20.66
2018-06-22T11:27:25.389Z,19.82
2018-06-22T11:29:55.028Z,19.03
2018-06-22T11:32:24.649Z,18.74
2018-06-22T11:34:54.313Z,19.00
2018-06-22T11:37:23.730Z,19.99
2018-06-22T11:39:53.469Z,19.68
2018-06-22T11:42:23.151Z,19.14
2018-06-22T11:44:52.838Z,18.87
2018-06-22T11:47:22.188Z,17.93
2018-06-22T11:49:51.906Z,16.93
2018-06-22T11:52:21.548Z,16.06
2018-06-22T11:54:51.553Z,15.71
2018-06-22T11:57:21.436Z,15.48
2018-06-22T11:59:51.081Z,15.54
2018-06-22T12:02:20.837Z,15.92
2018-06-22T12:04:50.235Z,16.72
2018-06-22T12:07:19.913Z,17.52
2018-06-22T12:09:49.587Z,18.57
2018-06-22T12:12:19.245Z,19.91
2018-06-22T12:14:48.912Z,19.75
2018-06-22T12:17:18.578Z,19.60
2018-06-22T12:19:48.377Z,19.10
2018-06-22T12:22:19.279Z,18.26
2018-06-22T12:24:48.978Z,17.19
2018-06-22T12:27:18.306Z,17.22
2018-06-22T12:29:48.124Z,18.04
2018-06-22T12:32:17.884Z,18.37
2018-06-22T12:34:47.539Z,18.96
2018-06-22T12:37:18.084Z,19.46
2018-06-22T12:39:48.068Z,21.21
2018-06-22T12:42:17.404Z,21.42
2018-06-22T12:44:47.108Z,20.61
2018-06-22T12:47:16.739Z,20.09
2018-06-22T12:49:46.407Z,19.22
2018-06-22T12:52:15.961Z,18.67
2018-06-22T12:54:45.679Z,18.00
2018-06-22T12:57:15.403Z,17.63
2018-06-22T12:59:45.086Z,17.38
2018-06-22T13:02:14.953Z,17.22
2018-06-22T13:04:44.805Z,17.22
2018-06-22T13:07:14.517Z,16.68
2018-06-22T13:09:44.275Z,16.21
2018-06-22T13:12:13.985Z,15.64
2018-06-22T13:14:43.702Z,15.30
2018-06-22T13:17:13.087Z,15.08
2018-06-22T13:19:42.773Z,15.04
2018-06-22T13:22:12.201Z,15.06
2018-06-22T13:24:41.867Z,15.48
2018-06-22T13:27:11.293Z,16.40
2018-06-22T13:29:40.977Z,18.14
2018-06-22T13:32:10.654Z,20.37
2018-06-22T13:34:40.303Z,21.98
2018-06-22T13:37:10.274Z,21.08
2018-06-22T13:39:40.157Z,21.62
2018-06-22T13:42:09.955Z,20.47
2018-06-22T13:44:39.805Z,19.23
2018-06-22T13:47:09.574Z,19.01
2018-06-22T13:49:39.381Z,20.01
2018-06-22T13:52:09.366Z,20.92
2018-06-22T13:54:39.268Z,21.46
2018-06-22T13:57:08.894Z,22.86
2018-06-22T13:59:38.586Z,22.60
2018-06-22T14:02:08.538Z,22.02
2018-06-22T14:04:43.293Z,23.20
2018-06-22T14:07:13.083Z,22.37
2018-06-22T14:09:43.479Z,22.78
2018-06-22T14:12:12.847Z,21.89
2018-06-22T14:14:42.535Z,21.26
2018-06-22T14:17:12.335Z,20.83
2018-06-22T14:19:42.309Z,20.74
2018-06-22T14:22:12.001Z,20.32
2018-06-22T14:24:41.659Z,21.54
2018-06-22T14:27:11.039Z,21.99
2018-06-22T14:29:40.758Z,21.49
2018-06-22T14:32:10.634Z,19.86
2018-06-22T14:34:40.295Z,19.86
2018-06-22T14:37:09.974Z,21.56
2018-06-22T14:39:39.752Z,23.21
2018-06-22T14:42:09.617Z,23.96
2018-06-22T14:44:39.269Z,23.65
2018-06-22T14:47:08.609Z,24.63
2018-06-22T14:49:38.274Z,24.38
2018-06-22T14:52:08.305Z,24.13
2018-06-22T14:54:43.207Z,23.77
2018-06-22T14:57:18.113Z,24.00
2018-06-22T14:59:52.948Z,24.32
2018-06-22T15:02:27.708Z,23.51
2018-06-22T15:05:02.630Z,23.14
2018-06-22T15:07:37.413Z,22.81
2018-06-22T15:10:07.190Z,23.14
2018-06-22T15:12:36.996Z,23.14
2018-06-22T15:15:07.330Z,22.53
2018-06-22T15:17:42.157Z,22.53
2018-06-22T15:20:11.853Z,23.55
2018-06-22T15:22:41.228Z,22.60
2018-06-22T15:25:10.993Z,23.35
2018-06-22T15:27:40.690Z,23.37
2018-06-22T15:30:10.504Z,23.10
2018-06-22T15:32:40.277Z,22.96
2018-06-22T15:35:15.057Z,22.97
2018-06-22T15:37:49.920Z,22.52
2018-06-22T15:40:24.827Z,22.03
2018-06-22T15:42:59.558Z,22.78
2018-06-22T15:45:30.162Z,23.55
2018-06-22T15:48:05.042Z,23.59
2018-06-22T15:50:40.510Z,22.10
2018-06-22T15:53:15.246Z,21.36
2018-06-22T15:55:47.063Z,22.73
2018-06-22T15:58:16.777Z,23.31
2018-06-22T16:00:46.607Z,22.12
2018-06-22T16:03:21.555Z,21.57
2018-06-22T16:05:51.242Z,22.43
2018-06-22T16:08:21.153Z,22.83
2018-06-22T16:10:50.975Z,22.67
2018-06-22T16:13:22.282Z,22.47
2018-06-22T16:15:57.064Z,22.04
2018-06-22T16:18:31.814Z,21.21
2018-06-22T16:21:06.632Z,20.74
2018-06-22T16:23:41.520Z,20.36
2018-06-22T16:26:16.435Z,19.88
2018-06-22T16:28:46.118Z,19.31
2018-06-22T16:31:15.841Z,18.81
2018-06-22T16:33:50.794Z,18.62
2018-06-22T16:36:20.597Z,18.61
2018-06-22T16:38:50.313Z,18.62
2018-06-22T16:41:20.152Z,18.54
2018-06-22T16:43:50.150Z,18.71
2018-06-22T16:46:19.950Z,18.76
2018-06-22T16:48:49.327Z,18.82
2018-06-22T16:51:18.792Z,18.79
2018-06-22T16:53:48.300Z,18.40
2018-06-22T16:56:18.051Z,18.49
2018-06-22T16:58:47.817Z,18.30
2018-06-22T17:01:17.563Z,18.41
2018-06-22T17:03:47.441Z,18.44
2018-06-22T17:06:17.153Z,18.30
2018-06-22T17:08:51.987Z,18.37
2018-06-22T17:11:26.997Z,18.43
2018-06-22T17:14:01.923Z,18.03
2018-06-22T17:16:36.490Z,17.99
2018-06-22T17:19:06.256Z,17.68
2018-06-22T17:21:36.006Z,17.57
2018-06-22T17:24:05.790Z,17.46
2018-06-22T17:26:35.485Z,17.43
2018-06-22T17:29:05.445Z,17.34
2018-06-22T17:31:35.220Z,17.26
2018-06-22T17:34:05.129Z,17.05
2018-06-22T17:36:35.038Z,16.92
2018-06-22T17:39:07.101Z,16.79
2018-06-22T17:41:36.796Z,16.62
2018-06-22T17:44:06.768Z,16.48
2018-06-22T17:46:36.545Z,16.41
2018-06-22T17:49:06.326Z,16.31
2018-06-22T17:51:36.124Z,16.47
2018-06-22T17:54:05.987Z,16.68
2018-06-22T17:56:35.677Z,16.79
2018-06-22T17:59:10.643Z,17.01
2018-06-22T18:01:45.539Z,16.92
2018-06-22T18:04:20.499Z,16.85
2018-06-22T18:07:04.420Z,16.93
2018-06-22T18:09:39.193Z,16.86
2018-06-22T18:12:14.156Z,16.81
2018-06-22T18:14:43.813Z,16.55
2018-06-22T18:17:13.712Z,16.46
2018-06-22T18:19:43.463Z,16.36
2018-06-22T18:22:13.246Z,16.25
2018-06-22T18:24:42.917Z,16.31
2018-06-22T18:27:12.809Z,16.05
2018-06-22T18:29:42.579Z,16.21
2018-06-22T18:32:12.416Z,16.13
2018-06-22T18:34:42.104Z,16.18
2018-06-22T18:37:11.821Z,15.91
2018-06-22T18:39:41.681Z,15.94
2018-06-22T18:42:11.378Z,15.83
2018-06-22T18:44:41.280Z,15.88
2018-06-22T18:47:11.043Z,15.67
2018-06-22T18:49:40.406Z,15.60
2018-06-22T18:52:15.185Z,15.63
2018-06-22T18:54:49.671Z,15.38
2018-06-22T18:57:24.584Z,15.49
2018-06-22T19:00:00.763Z,15.35
2018-06-22T19:02:35.609Z,15.51
2018-06-22T19:05:05.580Z,15.34
2018-06-22T19:07:35.305Z,15.42
2018-06-22T19:10:05.113Z,15.24
2018-06-22T19:12:34.855Z,15.36
2018-06-22T19:15:04.754Z,15.30
2018-06-22T19:17:34.567Z,15.23
2018-06-22T19:20:04.349Z,15.04
2018-06-22T19:22:34.064Z,15.11
2018-06-22T19:25:03.849Z,15.00
2018-06-22T19:27:33.566Z,14.93
2018-06-22T19:30:03.342Z,14.95
2018-06-22T19:32:33.099Z,15.03
2018-06-22T19:35:17.185Z,14.90
2018-06-22T19:37:46.831Z,14.98
2018-06-22T19:40:16.525Z,14.94
2018-06-22T19:42:46.306Z,14.90
2018-06-22T19:45:21.159Z,14.94
2018-06-22T19:47:55.938Z,14.93
2018-06-22T19:50:30.635Z,15.00
2018-06-22T19:53:05.414Z,14.87
2018-06-22T19:55:35.218Z,14.71
2018-06-22T19:58:04.585Z,14.59
2018-06-22T20:00:34.374Z,14.73
2018-06-22T20:03:04.194Z,14.58
2018-06-22T20:05:33.885Z,14.46
2018-06-22T20:08:03.667Z,14.36
2018-06-22T20:10:33.643Z,14.45
2018-06-22T20:13:03.398Z,14.27
2018-06-22T20:15:33.182Z,14.21
2018-06-22T20:18:03.036Z,14.50
2018-06-22T20:20:32.810Z,14.24
2018-06-22T20:23:02.572Z,14.24
2018-06-22T20:25:37.405Z,14.18
2018-06-22T20:28:07.461Z,14.08
2018-06-22T20:30:37.145Z,13.91
2018-06-22T20:33:06.975Z,13.97
2018-06-22T20:35:41.781Z,13.85
2018-06-22T20:38:16.653Z,13.74
2018-06-22T20:40:51.453Z,14.01
2018-06-22T20:43:26.473Z,13.74
2018-06-22T20:45:58.355Z,13.65
2018-06-22T20:48:33.114Z,13.46
2018-06-22T20:51:03.075Z,13.31
2018-06-22T20:53:32.763Z,13.03
2018-06-22T20:56:02.618Z,13.25
2018-06-22T20:58:32.061Z,13.22
2018-06-22T21:01:01.876Z,12.95
2018-06-22T21:03:31.574Z,12.91
2018-06-22T21:06:01.294Z,12.81
2018-06-22T21:08:30.985Z,12.69
2018-06-22T21:11:00.836Z,12.83
2018-06-22T21:13:30.591Z,12.87
2018-06-22T21:16:00.266Z,12.93
2018-06-22T21:18:30.007Z,12.67
2018-06-22T21:21:05.133Z,12.48
2018-06-22T21:23:34.836Z,12.40
2018-06-22T21:26:04.637Z,12.26
2018-06-22T21:28:39.499Z,12.09
2018-06-22T21:31:14.394Z,12.07
2018-06-22T21:34:49.190Z,12.07
2018-06-22T21:37:24.058Z,12.02
2018-06-22T21:39:53.938Z,11.83
2018-06-22T21:42:23.773Z,11.68
2018-06-22T21:44:53.591Z,11.73
2018-06-22T21:47:23.312Z,11.75
2018-06-22T21:49:53.200Z,11.77
2018-06-22T21:52:22.936Z,11.73
2018-06-22T21:54:52.717Z,11.57
2018-06-22T21:57:22.440Z,11.50
2018-06-22T21:59:52.256Z,11.68
2018-06-22T22:02:21.999Z,11.60
2018-06-22T22:04:51.720Z,11.64
2018-06-22T22:07:21.532Z,11.58
2018-06-22T22:09:51.349Z,11.54
2018-06-22T22:12:21.142Z,11.70
2018-06-22T22:14:50.844Z,11.77
2018-06-22T22:17:20.619Z,11.91
2018-06-22T22:19:50.123Z,11.79
2018-06-22T22:22:19.765Z,11.80
2018-06-22T22:24:49.633Z,11.84
2018-06-22T22:27:19.374Z,11.78
2018-06-22T22:29:49.161Z,11.62
2018-06-22T22:32:18.851Z,11.84
2018-06-22T22:34:48.595Z,11.74
2018-06-22T22:37:18.539Z,11.69
2018-06-22T22:39:47.872Z,11.75
2018-06-22T22:42:17.565Z,11.72
2018-06-22T22:44:46.973Z,11.63
2018-06-22T22:47:16.685Z,11.54
2018-06-22T22:49:46.398Z,11.36
2018-06-22T22:52:15.793Z,11.68
2018-06-22T22:54:45.593Z,11.76
2018-06-22T22:57:16.392Z,11.43
2018-06-22T22:59:46.193Z,11.27
2018-06-22T23:02:15.667Z,11.12
2018-06-22T23:04:44.998Z,11.10
2018-06-22T23:07:14.705Z,11.03
2018-06-22T23:09:44.388Z,11.22
2018-06-22T23:12:14.076Z,11.14
2018-06-22T23:14:43.935Z,11.17
2018-06-22T23:17:13.368Z,11.19
2018-06-22T23:19:43.089Z,11.15
2018-06-22T23:22:12.809Z,11.16
2018-06-22T23:24:42.629Z,11.22
2018-06-22T23:27:12.394Z,11.01
2018-06-22T23:29:41.769Z,11.05
2018-06-22T23:32:11.458Z,10.77
2018-06-22T23:34:41.121Z,10.76
2018-06-22T23:37:10.817Z,10.64
2018-06-22T23:39:40.466Z,10.54
2018-06-22T23:42:10.200Z,10.37
2018-06-22T23:44:39.869Z,10.35
2018-06-22T23:47:09.534Z,10.22
2018-06-22T23:49:39.206Z,10.41
2018-06-22T23:52:08.690Z,10.40
2018-06-22T23:54:38.401Z,10.24
2018-06-22T23:57:08.188Z,10.21
2018-06-22T23:59:37.842Z,10.59
